ADDS METAR Data INFO
IDs: Format: Raw Decoded Include TAF

Data at: 2227 UTC 22 Aug 2017

KBGD 222151Z AUTO 02012KT 10SM SCT029 OVC036 27/20 A3016 RMK AO2 SLP171 T02720200
KBGD 222051Z AUTO 36010KT 10SM OVC025 27/20 A3018 RMK AO2 SLP179 T02670200 58010
KBGD 221951Z AUTO 04011KT 10SM OVC016 24/20 A3020 RMK AO2 SLP187 T02440200
KBGD 221907Z AUTO 03008KT 10SM OVC015 24/20 A3021 RMK AO2 T02390200
KBGD 221851Z AUTO 04010KT 10SM OVC013 23/20 A3021 RMK AO2 SLP192 T02330200
KBGD 221751Z AUTO 03011KT 10SM OVC010 23/19 A3021 RMK AO2 CIG 010V013 SLP194 T02280194 10256 20206 52008
KBGD 221651Z AUTO 02015KT 10SM OVC014 24/20 A3020 RMK AO2 SLP187 T02390200
KBGD 221647Z AUTO 01013KT 10SM OVC014 24/20 A3020 RMK AO2
KBGD 221559Z AUTO 35013KT 10SM BKN020 24/19 A3019 RMK AO2 T02440194
KBGD 221551Z AUTO 35011KT 10SM SCT020 25/19 A3019 RMK AO2 SLP180 T02500194
KBGD 221451Z AUTO 30006KT 10SM CLR 24/19 A3017 RMK AO2 SLP173 T02390189 51017
KBGD 221351Z AUTO 27004KT 10SM CLR 22/19 A3015 RMK AO2 SLP169 T02220189
KBGD 221251Z AUTO 29006KT 10SM CLR 21/18 A3013 RMK AO2 SLP161 T02060183
KBGD 221151Z AUTO 21006KT 10SM CLR 21/18 A3011 RMK AO2 SLP154 70025 T02110183 10228 20194 53000
KBGD 221051Z AUTO 26003KT 10SM CLR 20/18 A3010 RMK AO2 SLP152 T02000178
KBGD 220951Z AUTO 26004KT 10SM CLR 21/18 A3011 RMK AO2 SLP152 T02110178
KBGD 220851Z AUTO 22007KT 10SM CLR 22/18 A3011 RMK AO2 SLP154 T02170178 55002
KBGD 220751Z AUTO 21007KT 10SM CLR 23/17 A3011 RMK AO2 SLP154 T02280172
KBGD 220651Z AUTO 20003KT 10SM CLR 23/18 A3011 RMK AO2 SLP157 T02280178
KBGD 220551Z AUTO 19008G15KT 10SM CLR 23/18 A3012 RMK AO2 SLP159 T02280178 10294 20228 403000200 50006
KBGD 220451Z AUTO 18008KT 10SM CLR 23/18 A3012 RMK AO2 SLP160 T02330183
KBGD 220351Z AUTO 19007KT 10SM CLR 25/19 A3011 RMK AO2 SLP159 T02500189
KBGD 220251Z AUTO 19009KT 10SM CLR 26/18 A3010 RMK AO2 SLP153 T02610183 53012
KBGD 220151Z AUTO 19006KT 10SM CLR 27/18 A3007 RMK AO2 SLP143 T02670183
KBGD 220051Z AUTO 20010G17KT 10SM CLR 28/18 A3006 RMK AO2 SLP135 T02830183
KBGD 212351Z AUTO 20009KT 10SM CLR 29/18 A3006 RMK AO2 SLP136 60000 T02890183 10300 20233 56011
KBGD 212251Z AUTO 22012G21KT 10SM CLR 30/18 A3007 RMK AO2 SLPNO T03000178
KBGD 212151Z AUTO 20010G17KT 10SM FEW045 29/19 A3008 RMK AO2 SLP143 T02940194
KBGD 212051Z AUTO 19012G16KT 10SM SCT040 28/19 A3009 RMK AO2 SLP150 60000 T02830194 58007
KBGD 211951Z AUTO 21009G18KT 10SM CLR 27/19 A3011 RMK AO2 SLP156 T02720194
KBGD 211851Z AUTO 21005KT 10SM SCT120 25/21 A3011 RMK AO2 RAB05E14 SLP160 P0000 T02500206
KBGD 211751Z AUTO 22008KT 10SM CLR 24/20 A3012 RMK AO2 SLP161 60025 T02390200 10239 20200 58010
KBGD 211651Z AUTO 21007KT 10SM BKN110 23/19 A3013 RMK AO2 RAE1556B19E33 SLP166 P0000 T02280194
KBGD 211551Z AUTO 21008KT 10SM -RA BKN110 22/19 A3014 RMK AO2 SLP166 P0004 T02170194
KBGD 211451Z AUTO 22010G23KT 5SM RA BR SCT090 OVC110 21/19 A3015 RMK AO2 SLP170 P0009 60021 T02060189 51016
KBGD 211358Z AUTO 21015G21KT 3SM RA BR FEW044 BKN075 OVC090 21/19 A3014 RMK AO2 P0003 T02060189
KBGD 211351Z AUTO 22013G23KT 1 1/4SM +RA BR SCT039 BKN070 OVC080 20/19 A3014 RMK AO2 RAB18 SLP167 P0012 T02000189
KBGD 211345Z AUTO 22013G23KT 1 3/4SM +RA BR FEW033 BKN085 OVC110 21/19 A3014 RMK AO2 RAB18 P0009
KBGD 211251Z AUTO 22009KT 10SM FEW080 BKN100 OVC120 22/17 A3012 RMK AO2 SLP153 T02220172 $
KBGD 211151Z AUTO 20005KT 10SM SCT090 22/18 A3010 RMK AO2 RAB10091059E1008 SLP148 P0000 60015 70019 T02170183 10233 20200 $